sensor_id;sensor_type;location;lat;lon;timestamp;P1;durP1;ratioP1;P2;durP2;ratioP2
48042;SDS011;33988;47.992;8.820;2022-07-17T00:01:47;1.63;;;1.38;;
48042;SDS011;33988;47.992;8.820;2022-07-17T00:04:16;1.50;;;1.38;;
48042;SDS011;33988;47.992;8.820;2022-07-17T00:06:45;3.45;;;1.77;;
48042;SDS011;33988;47.992;8.820;2022-07-17T00:09:12;2.90;;;1.40;;
48042;SDS011;33988;47.992;8.820;2022-07-17T00:11:39;2.35;;;1.60;;
48042;SDS011;33988;47.992;8.820;2022-07-17T00:14:06;1.55;;;1.40;;
48042;SDS011;33988;47.992;8.820;2022-07-17T00:16:37;1.67;;;1.30;;
48042;SDS011;33988;47.992;8.820;2022-07-17T00:19:04;1.85;;;1.30;;
48042;SDS011;33988;47.992;8.820;2022-07-17T00:21:35;1.63;;;1.30;;
48042;SDS011;33988;47.992;8.820;2022-07-17T00:24:02;2.42;;;1.27;;
48042;SDS011;33988;47.992;8.820;2022-07-17T00:26:36;1.55;;;1.38;;
48042;SDS011;33988;47.992;8.820;2022-07-17T00:29:06;2.00;;;1.70;;
48042;SDS011;33988;47.992;8.820;2022-07-17T00:31:33;2.42;;;1.42;;
48042;SDS011;33988;47.992;8.820;2022-07-17T00:34:00;2.13;;;1.70;;
48042;SDS011;33988;47.992;8.820;2022-07-17T00:36:30;2.53;;;1.67;;
48042;SDS011;33988;47.992;8.820;2022-07-17T00:38:56;1.50;;;1.40;;
48042;SDS011;33988;47.992;8.820;2022-07-17T00:41:23;2.88;;;1.70;;
48042;SDS011;33988;47.992;8.820;2022-07-17T00:43:51;2.17;;;1.75;;
48042;SDS011;33988;47.992;8.820;2022-07-17T00:46:20;2.53;;;1.55;;
48042;SDS011;33988;47.992;8.820;2022-07-17T00:48:47;2.00;;;1.60;;
48042;SDS011;33988;47.992;8.820;2022-07-17T00:51:14;1.30;;;1.20;;
48042;SDS011;33988;47.992;8.820;2022-07-17T00:56:17;1.50;;;1.40;;
48042;SDS011;33988;47.992;8.820;2022-07-17T00:58:47;1.73;;;1.40;;
48042;SDS011;33988;47.992;8.820;2022-07-17T01:01:17;1.50;;;1.38;;
48042;SDS011;33988;47.992;8.820;2022-07-17T01:03:44;2.00;;;1.48;;
48042;SDS011;33988;47.992;8.820;2022-07-17T01:06:12;3.30;;;1.52;;
48042;SDS011;33988;47.992;8.820;2022-07-17T01:08:41;1.40;;;1.27;;
48042;SDS011;33988;47.992;8.820;2022-07-17T01:11:11;1.98;;;1.42;;
48042;SDS011;33988;47.992;8.820;2022-07-17T01:13:39;1.95;;;1.27;;
48042;SDS011;33988;47.992;8.820;2022-07-17T01:16:07;2.17;;;1.40;;
48042;SDS011;33988;47.992;8.820;2022-07-17T01:18:37;1.30;;;1.20;;
48042;SDS011;33988;47.992;8.820;2022-07-17T01:21:05;1.98;;;1.48;;
48042;SDS011;33988;47.992;8.820;2022-07-17T01:23:35;2.08;;;1.40;;
48042;SDS011;33988;47.992;8.820;2022-07-17T01:26:02;1.50;;;1.40;;
48042;SDS011;33988;47.992;8.820;2022-07-17T01:28:31;1.63;;;1.33;;
48042;SDS011;33988;47.992;8.820;2022-07-17T01:31:00;1.38;;;1.10;;
48042;SDS011;33988;47.992;8.820;2022-07-17T01:33:28;1.95;;;1.10;;
48042;SDS011;33988;47.992;8.820;2022-07-17T01:35:55;1.38;;;1.27;;
48042;SDS011;33988;47.992;8.820;2022-07-17T01:38:24;4.32;;;1.60;;
48042;SDS011;33988;47.992;8.820;2022-07-17T01:40:51;2.55;;;1.67;;
48042;SDS011;33988;47.992;8.820;2022-07-17T01:43:18;2.75;;;1.42;;
48042;SDS011;33988;47.992;8.820;2022-07-17T01:45:45;2.13;;;1.48;;
48042;SDS011;33988;47.992;8.820;2022-07-17T01:48:22;2.05;;;1.63;;
48042;SDS011;33988;47.992;8.820;2022-07-17T01:50:56;1.35;;;1.25;;
48042;SDS011;33988;47.992;8.820;2022-07-17T01:53:28;2.22;;;1.35;;
48042;SDS011;33988;47.992;8.820;2022-07-17T01:55:55;2.15;;;1.77;;
48042;SDS011;33988;47.992;8.820;2022-07-17T01:58:22;3.28;;;1.70;;
48042;SDS011;33988;47.992;8.820;2022-07-17T02:00:49;2.42;;;1.58;;
48042;SDS011;33988;47.992;8.820;2022-07-17T02:03:22;1.90;;;1.30;;
48042;SDS011;33988;47.992;8.820;2022-07-17T02:05:49;1.85;;;1.30;;
48042;SDS011;33988;47.992;8.820;2022-07-17T02:08:16;1.50;;;1.40;;
48042;SDS011;33988;47.992;8.820;2022-07-17T02:10:45;2.17;;;1.58;;
48042;SDS011;33988;47.992;8.820;2022-07-17T02:13:13;2.53;;;1.38;;
48042;SDS011;33988;47.992;8.820;2022-07-17T02:15:40;1.58;;;1.45;;
48042;SDS011;33988;47.992;8.820;2022-07-17T02:18:07;3.22;;;1.58;;
48042;SDS011;33988;47.992;8.820;2022-07-17T02:20:36;2.15;;;1.30;;
48042;SDS011;33988;47.992;8.820;2022-07-17T02:23:03;1.98;;;1.73;;
48042;SDS011;33988;47.992;8.820;2022-07-17T02:25:30;3.72;;;1.55;;
48042;SDS011;33988;47.992;8.820;2022-07-17T02:27:57;1.95;;;1.50;;
48042;SDS011;33988;47.992;8.820;2022-07-17T02:30:29;2.53;;;1.60;;
48042;SDS011;33988;47.992;8.820;2022-07-17T02:32:56;2.17;;;1.60;;
48042;SDS011;33988;47.992;8.820;2022-07-17T02:35:23;1.73;;;1.60;;
48042;SDS011;33988;47.992;8.820;2022-07-17T02:37:50;1.50;;;1.40;;
48042;SDS011;33988;47.992;8.820;2022-07-17T02:40:17;2.15;;;1.45;;
48042;SDS011;33988;47.992;8.820;2022-07-17T02:42:44;1.85;;;1.30;;
48042;SDS011;33988;47.992;8.820;2022-07-17T02:45:11;1.75;;;1.48;;
48042;SDS011;33988;47.992;8.820;2022-07-17T02:47:41;1.40;;;1.30;;
48042;SDS011;33988;47.992;8.820;2022-07-17T02:50:09;2.22;;;1.60;;
48042;SDS011;33988;47.992;8.820;2022-07-17T02:52:36;3.72;;;1.50;;
48042;SDS011;33988;47.992;8.820;2022-07-17T02:55:08;1.75;;;1.52;;
48042;SDS011;33988;47.992;8.820;2022-07-17T02:57:35;2.55;;;1.30;;
48042;SDS011;33988;47.992;8.820;2022-07-17T03:00:04;2.58;;;1.63;;
48042;SDS011;33988;47.992;8.820;2022-07-17T03:02:34;3.17;;;1.60;;
48042;SDS011;33988;47.992;8.820;2022-07-17T03:05:02;1.70;;;1.60;;
48042;SDS011;33988;47.992;8.820;2022-07-17T03:07:33;2.28;;;1.48;;
48042;SDS011;33988;47.992;8.820;2022-07-17T03:10:00;2.22;;;1.60;;
48042;SDS011;33988;47.992;8.820;2022-07-17T03:12:27;1.80;;;1.50;;
48042;SDS011;33988;47.992;8.820;2022-07-17T03:14:54;4.22;;;1.70;;
48042;SDS011;33988;47.992;8.820;2022-07-17T03:17:21;3.03;;;1.98;;
48042;SDS011;33988;47.992;8.820;2022-07-17T03:19:54;3.40;;;1.67;;
48042;SDS011;33988;47.992;8.820;2022-07-17T03:22:21;1.77;;;1.50;;
48042;SDS011;33988;47.992;8.820;2022-07-17T03:24:47;2.25;;;1.60;;
48042;SDS011;33988;47.992;8.820;2022-07-17T03:29:46;2.08;;;1.50;;
48042;SDS011;33988;47.992;8.820;2022-07-17T03:32:15;2.10;;;1.90;;
48042;SDS011;33988;47.992;8.820;2022-07-17T03:34:43;2.50;;;1.50;;
48042;SDS011;33988;47.992;8.820;2022-07-17T03:37:10;2.80;;;1.55;;
48042;SDS011;33988;47.992;8.820;2022-07-17T03:39:41;1.63;;;1.50;;
48042;SDS011;33988;47.992;8.820;2022-07-17T03:42:08;1.90;;;1.75;;
48042;SDS011;33988;47.992;8.820;2022-07-17T03:44:36;1.83;;;1.42;;
48042;SDS011;33988;47.992;8.820;2022-07-17T03:47:05;1.98;;;1.50;;
48042;SDS011;33988;47.992;8.820;2022-07-17T03:49:32;2.10;;;1.65;;
48042;SDS011;33988;47.992;8.820;2022-07-17T03:51:59;2.10;;;1.90;;
48042;SDS011;33988;47.992;8.820;2022-07-17T03:54:29;1.85;;;1.55;;
48042;SDS011;33988;47.992;8.820;2022-07-17T03:56:56;1.52;;;1.42;;
48042;SDS011;33988;47.992;8.820;2022-07-17T03:59:23;3.60;;;1.45;;
48042;SDS011;33988;47.992;8.820;2022-07-17T04:01:50;2.40;;;1.83;;
48042;SDS011;33988;47.992;8.820;2022-07-17T04:04:17;1.70;;;1.60;;
48042;SDS011;33988;47.992;8.820;2022-07-17T04:06:44;1.75;;;1.58;;
48042;SDS011;33988;47.992;8.820;2022-07-17T04:09:11;1.65;;;1.40;;
48042;SDS011;33988;47.992;8.820;2022-07-17T04:11:41;1.67;;;1.52;;
48042;SDS011;33988;47.992;8.820;2022-07-17T04:14:08;1.83;;;1.63;;
48042;SDS011;33988;47.992;8.820;2022-07-17T04:16:38;2.47;;;1.58;;
48042;SDS011;33988;47.992;8.820;2022-07-17T04:19:05;2.42;;;1.80;;
48042;SDS011;33988;47.992;8.820;2022-07-17T04:21:34;1.80;;;1.70;;
48042;SDS011;33988;47.992;8.820;2022-07-17T04:24:01;2.58;;;1.52;;
48042;SDS011;33988;47.992;8.820;2022-07-17T04:26:30;3.22;;;1.88;;
48042;SDS011;33988;47.992;8.820;2022-07-17T04:28:59;2.70;;;1.40;;
48042;SDS011;33988;47.992;8.820;2022-07-17T04:31:28;1.55;;;1.33;;
48042;SDS011;33988;47.992;8.820;2022-07-17T04:33:58;1.90;;;1.70;;
48042;SDS011;33988;47.992;8.820;2022-07-17T04:36:25;2.30;;;1.70;;
48042;SDS011;33988;47.992;8.820;2022-07-17T04:41:23;2.10;;;1.55;;
48042;SDS011;33988;47.992;8.820;2022-07-17T04:43:50;1.60;;;1.42;;
48042;SDS011;33988;47.992;8.820;2022-07-17T04:46:17;3.40;;;1.60;;
48042;SDS011;33988;47.992;8.820;2022-07-17T04:48:44;1.92;;;1.75;;
48042;SDS011;33988;47.992;8.820;2022-07-17T04:51:16;2.15;;;1.80;;
48042;SDS011;33988;47.992;8.820;2022-07-17T04:53:46;2.10;;;1.70;;
48042;SDS011;33988;47.992;8.820;2022-07-17T04:56:13;2.17;;;1.80;;
48042;SDS011;33988;47.992;8.820;2022-07-17T04:58:43;1.80;;;1.70;;
48042;SDS011;33988;47.992;8.820;2022-07-17T05:01:10;2.20;;;1.63;;
48042;SDS011;33988;47.992;8.820;2022-07-17T05:03:37;1.90;;;1.50;;
48042;SDS011;33988;47.992;8.820;2022-07-17T05:06:06;1.80;;;1.70;;
48042;SDS011;33988;47.992;8.820;2022-07-17T05:08:34;1.75;;;1.65;;
48042;SDS011;33988;47.992;8.820;2022-07-17T05:11:01;1.55;;;1.42;;
48042;SDS011;33988;47.992;8.820;2022-07-17T05:13:31;1.60;;;1.50;;
48042;SDS011;33988;47.992;8.820;2022-07-17T05:16:00;1.90;;;1.70;;
48042;SDS011;33988;47.992;8.820;2022-07-17T05:18:27;1.85;;;1.70;;
48042;SDS011;33988;47.992;8.820;2022-07-17T05:23:25;1.58;;;1.40;;
48042;SDS011;33988;47.992;8.820;2022-07-17T05:25:52;1.70;;;1.58;;
48042;SDS011;33988;47.992;8.820;2022-07-17T05:28:22;1.67;;;1.58;;
48042;SDS011;33988;47.992;8.820;2022-07-17T05:30:49;2.58;;;1.85;;
48042;SDS011;33988;47.992;8.820;2022-07-17T05:33:16;2.50;;;1.60;;
48042;SDS011;33988;47.992;8.820;2022-07-17T05:35:43;2.20;;;1.83;;
48042;SDS011;33988;47.992;8.820;2022-07-17T05:38:12;3.95;;;1.80;;
48042;SDS011;33988;47.992;8.820;2022-07-17T05:40:42;2.38;;;1.70;;
48042;SDS011;33988;47.992;8.820;2022-07-17T05:43:09;2.03;;;1.83;;
48042;SDS011;33988;47.992;8.820;2022-07-17T05:45:41;2.65;;;1.73;;
48042;SDS011;33988;47.992;8.820;2022-07-17T05:48:08;2.03;;;1.83;;
48042;SDS011;33988;47.992;8.820;2022-07-17T05:50:35;2.15;;;1.95;;
48042;SDS011;33988;47.992;8.820;2022-07-17T05:53:02;1.55;;;1.45;;
48042;SDS011;33988;47.992;8.820;2022-07-17T05:55:31;2.00;;;1.80;;
48042;SDS011;33988;47.992;8.820;2022-07-17T05:58:01;3.33;;;1.67;;
48042;SDS011;33988;47.992;8.820;2022-07-17T06:00:28;2.45;;;1.63;;
48042;SDS011;33988;47.992;8.820;2022-07-17T06:02:55;2.03;;;1.77;;
48042;SDS011;33988;47.992;8.820;2022-07-17T06:05:22;2.25;;;2.05;;
48042;SDS011;33988;47.992;8.820;2022-07-17T06:07:50;2.78;;;1.88;;
48042;SDS011;33988;47.992;8.820;2022-07-17T06:10:17;2.17;;;1.60;;
48042;SDS011;33988;47.992;8.820;2022-07-17T06:12:47;1.77;;;1.67;;
48042;SDS011;33988;47.992;8.820;2022-07-17T06:15:15;1.80;;;1.70;;
48042;SDS011;33988;47.992;8.820;2022-07-17T06:17:43;1.75;;;1.65;;
48042;SDS011;33988;47.992;8.820;2022-07-17T06:20:10;1.55;;;1.45;;
48042;SDS011;33988;47.992;8.820;2022-07-17T06:22:41;3.55;;;1.63;;
48042;SDS011;33988;47.992;8.820;2022-07-17T06:25:09;2.50;;;1.70;;
48042;SDS011;33988;47.992;8.820;2022-07-17T06:27:38;1.90;;;1.63;;
48042;SDS011;33988;47.992;8.820;2022-07-17T06:30:13;2.10;;;1.52;;
48042;SDS011;33988;47.992;8.820;2022-07-17T06:32:41;1.65;;;1.55;;
48042;SDS011;33988;47.992;8.820;2022-07-17T06:35:09;2.13;;;1.90;;
48042;SDS011;33988;47.992;8.820;2022-07-17T06:37:37;3.92;;;1.48;;
48042;SDS011;33988;47.992;8.820;2022-07-17T06:40:04;2.10;;;1.50;;
48042;SDS011;33988;47.992;8.820;2022-07-17T06:42:34;2.70;;;1.35;;
48042;SDS011;33988;47.992;8.820;2022-07-17T06:45:02;1.90;;;1.20;;
48042;SDS011;33988;47.992;8.820;2022-07-17T06:47:29;1.75;;;1.50;;
48042;SDS011;33988;47.992;8.820;2022-07-17T06:49:56;1.38;;;1.20;;
48042;SDS011;33988;47.992;8.820;2022-07-17T06:52:23;1.55;;;1.40;;
48042;SDS011;33988;47.992;8.820;2022-07-17T06:54:55;1.77;;;1.30;;
48042;SDS011;33988;47.992;8.820;2022-07-17T06:57:27;1.40;;;1.30;;
48042;SDS011;33988;47.992;8.820;2022-07-17T06:59:54;3.03;;;1.50;;
48042;SDS011;33988;47.992;8.820;2022-07-17T07:02:23;4.22;;;1.25;;
48042;SDS011;33988;47.992;8.820;2022-07-17T07:04:53;3.25;;;1.42;;
48042;SDS011;33988;47.992;8.820;2022-07-17T07:07:20;1.60;;;1.25;;
48042;SDS011;33988;47.992;8.820;2022-07-17T07:09:50;1.40;;;1.30;;
48042;SDS011;33988;47.992;8.820;2022-07-17T07:12:19;1.90;;;1.48;;
48042;SDS011;33988;47.992;8.820;2022-07-17T07:14:48;3.30;;;2.22;;
48042;SDS011;33988;47.992;8.820;2022-07-17T07:17:15;2.85;;;1.80;;
48042;SDS011;33988;47.992;8.820;2022-07-17T07:19:45;2.28;;;1.40;;
48042;SDS011;33988;47.992;8.820;2022-07-17T07:22:12;2.67;;;1.80;;
48042;SDS011;33988;47.992;8.820;2022-07-17T07:24:42;1.38;;;1.15;;
48042;SDS011;33988;47.992;8.820;2022-07-17T07:27:08;1.40;;;1.30;;
48042;SDS011;33988;47.992;8.820;2022-07-17T07:29:36;1.13;;;1.02;;
48042;SDS011;33988;47.992;8.820;2022-07-17T07:32:05;1.65;;;1.15;;
48042;SDS011;33988;47.992;8.820;2022-07-17T07:34:32;1.30;;;1.20;;
48042;SDS011;33988;47.992;8.820;2022-07-17T07:37:01;2.35;;;1.35;;
48042;SDS011;33988;47.992;8.820;2022-07-17T07:39:28;1.23;;;1.13;;
48042;SDS011;33988;47.992;8.820;2022-07-17T07:41:55;1.75;;;1.35;;
48042;SDS011;33988;47.992;8.820;2022-07-17T07:44:22;2.13;;;1.20;;
48042;SDS011;33988;47.992;8.820;2022-07-17T07:46:57;1.80;;;1.30;;
48042;SDS011;33988;47.992;8.820;2022-07-17T07:49:27;1.73;;;1.40;;
48042;SDS011;33988;47.992;8.820;2022-07-17T07:51:54;2.30;;;1.20;;
48042;SDS011;33988;47.992;8.820;2022-07-17T07:54:31;1.40;;;1.30;;
48042;SDS011;33988;47.992;8.820;2022-07-17T07:56:58;1.70;;;1.45;;
48042;SDS011;33988;47.992;8.820;2022-07-17T07:59:26;1.70;;;1.40;;
48042;SDS011;33988;47.992;8.820;2022-07-17T08:01:54;2.33;;;1.38;;
48042;SDS011;33988;47.992;8.820;2022-07-17T08:04:24;3.33;;;1.35;;
48042;SDS011;33988;47.992;8.820;2022-07-17T08:06:51;1.58;;;1.30;;
48042;SDS011;33988;47.992;8.820;2022-07-17T08:09:19;1.20;;;1.10;;
48042;SDS011;33988;47.992;8.820;2022-07-17T08:11:46;2.17;;;1.30;;
48042;SDS011;33988;47.992;8.820;2022-07-17T08:14:16;1.43;;;1.33;;
48042;SDS011;33988;47.992;8.820;2022-07-17T08:16:46;2.73;;;1.30;;
48042;SDS011;33988;47.992;8.820;2022-07-17T08:19:13;1.83;;;1.40;;
48042;SDS011;33988;47.992;8.820;2022-07-17T08:21:40;1.42;;;1.33;;
48042;SDS011;33988;47.992;8.820;2022-07-17T08:24:07;1.50;;;1.30;;
48042;SDS011;33988;47.992;8.820;2022-07-17T08:26:38;2.10;;;1.10;;
48042;SDS011;33988;47.992;8.820;2022-07-17T08:29:06;2.15;;;1.20;;
48042;SDS011;33988;47.992;8.820;2022-07-17T08:31:33;1.40;;;1.20;;
48042;SDS011;33988;47.992;8.820;2022-07-17T08:34:02;1.67;;;1.38;;
48042;SDS011;33988;47.992;8.820;2022-07-17T08:36:29;1.20;;;1.10;;
48042;SDS011;33988;47.992;8.820;2022-07-17T08:38:57;1.80;;;1.17;;
48042;SDS011;33988;47.992;8.820;2022-07-17T08:41:24;1.30;;;1.17;;
48042;SDS011;33988;47.992;8.820;2022-07-17T08:43:52;1.40;;;1.30;;
48042;SDS011;33988;47.992;8.820;2022-07-17T08:46:23;1.88;;;1.48;;
48042;SDS011;33988;47.992;8.820;2022-07-17T08:48:56;1.88;;;1.17;;
48042;SDS011;33988;47.992;8.820;2022-07-17T08:51:29;1.65;;;1.05;;
48042;SDS011;33988;47.992;8.820;2022-07-17T08:53:57;1.10;;;1.10;;
48042;SDS011;33988;47.992;8.820;2022-07-17T08:56:27;3.47;;;1.30;;
48042;SDS011;33988;47.992;8.820;2022-07-17T08:58:57;1.63;;;1.27;;
48042;SDS011;33988;47.992;8.820;2022-07-17T09:01:24;1.40;;;1.30;;
48042;SDS011;33988;47.992;8.820;2022-07-17T09:03:59;4.85;;;1.42;;
48042;SDS011;33988;47.992;8.820;2022-07-17T09:06:36;7.38;;;1.60;;
48042;SDS011;33988;47.992;8.820;2022-07-17T09:09:05;4.63;;;1.10;;
48042;SDS011;33988;47.992;8.820;2022-07-17T09:11:41;1.63;;;1.33;;
48042;SDS011;33988;47.992;8.820;2022-07-17T09:14:15;1.60;;;1.20;;
48042;SDS011;33988;47.992;8.820;2022-07-17T09:16:51;1.55;;;1.40;;
48042;SDS011;33988;47.992;8.820;2022-07-17T09:24:43;2.00;;;1.40;;
48042;SDS011;33988;47.992;8.820;2022-07-17T09:29:54;1.17;;;1.08;;
48042;SDS011;33988;47.992;8.820;2022-07-17T09:32:25;1.33;;;1.20;;
48042;SDS011;33988;47.992;8.820;2022-07-17T09:34:59;1.48;;;1.23;;
48042;SDS011;33988;47.992;8.820;2022-07-17T09:37:29;1.60;;;1.20;;
48042;SDS011;33988;47.992;8.820;2022-07-17T09:40:01;1.20;;;1.10;;
48042;SDS011;33988;47.992;8.820;2022-07-17T09:42:35;1.38;;;1.25;;
48042;SDS011;33988;47.992;8.820;2022-07-17T09:45:10;1.30;;;1.20;;
48042;SDS011;33988;47.992;8.820;2022-07-17T09:47:37;3.25;;;1.65;;
48042;SDS011;33988;47.992;8.820;2022-07-17T09:50:06;1.55;;;1.17;;
48042;SDS011;33988;47.992;8.820;2022-07-17T09:52:36;3.78;;;1.17;;
48042;SDS011;33988;47.992;8.820;2022-07-17T09:55:04;3.05;;;1.30;;
48042;SDS011;33988;47.992;8.820;2022-07-17T09:57:52;1.90;;;1.38;;
48042;SDS011;33988;47.992;8.820;2022-07-17T10:00:21;1.40;;;1.30;;
48042;SDS011;33988;47.992;8.820;2022-07-17T10:02:51;2.78;;;1.48;;
48042;SDS011;33988;47.992;8.820;2022-07-17T10:05:19;2.40;;;1.40;;
48042;SDS011;33988;47.992;8.820;2022-07-17T10:07:46;1.45;;;1.30;;
48042;SDS011;33988;47.992;8.820;2022-07-17T10:10:15;1.50;;;1.40;;
48042;SDS011;33988;47.992;8.820;2022-07-17T10:12:46;1.98;;;1.67;;
48042;SDS011;33988;47.992;8.820;2022-07-17T10:17:43;1.58;;;1.48;;
48042;SDS011;33988;47.992;8.820;2022-07-17T10:20:12;2.30;;;1.58;;
48042;SDS011;33988;47.992;8.820;2022-07-17T10:22:41;2.65;;;1.60;;
48042;SDS011;33988;47.992;8.820;2022-07-17T10:25:16;2.08;;;1.35;;
48042;SDS011;33988;47.992;8.820;2022-07-17T10:27:49;2.15;;;1.63;;
48042;SDS011;33988;47.992;8.820;2022-07-17T10:30:24;1.75;;;1.35;;
48042;SDS011;33988;47.992;8.820;2022-07-17T10:33:15;1.88;;;1.60;;
48042;SDS011;33988;47.992;8.820;2022-07-17T10:35:46;3.13;;;1.25;;
48042;SDS011;33988;47.992;8.820;2022-07-17T10:38:15;1.90;;;1.60;;
48042;SDS011;33988;47.992;8.820;2022-07-17T10:40:42;1.67;;;1.30;;
48042;SDS011;33988;47.992;8.820;2022-07-17T10:43:09;1.60;;;1.17;;
48042;SDS011;33988;47.992;8.820;2022-07-17T10:45:38;1.55;;;1.30;;
48042;SDS011;33988;47.992;8.820;2022-07-17T10:48:12;2.28;;;1.27;;
48042;SDS011;33988;47.992;8.820;2022-07-17T10:53:33;2.08;;;1.90;;
48042;SDS011;33988;47.992;8.820;2022-07-17T10:58:35;2.58;;;1.75;;
48042;SDS011;33988;47.992;8.820;2022-07-17T11:01:07;1.67;;;1.58;;
48042;SDS011;33988;47.992;8.820;2022-07-17T11:14:30;1.80;;;1.70;;
48042;SDS011;33988;47.992;8.820;2022-07-17T11:16:59;1.80;;;1.20;;
48042;SDS011;33988;47.992;8.820;2022-07-17T11:19:30;1.63;;;1.52;;
48042;SDS011;33988;47.992;8.820;2022-07-17T11:22:05;2.58;;;1.77;;
48042;SDS011;33988;47.992;8.820;2022-07-17T11:27:21;2.13;;;1.73;;
48042;SDS011;33988;47.992;8.820;2022-07-17T11:29:55;1.65;;;1.40;;
48042;SDS011;33988;47.992;8.820;2022-07-17T11:32:31;1.58;;;1.48;;
48042;SDS011;33988;47.992;8.820;2022-07-17T11:35:00;2.47;;;1.60;;
48042;SDS011;33988;47.992;8.820;2022-07-17T11:37:48;1.58;;;1.48;;
48042;SDS011;33988;47.992;8.820;2022-07-17T11:40:16;2.17;;;1.48;;
48042;SDS011;33988;47.992;8.820;2022-07-17T11:42:45;2.58;;;1.70;;
48042;SDS011;33988;47.992;8.820;2022-07-17T11:45:12;3.28;;;1.50;;
48042;SDS011;33988;47.992;8.820;2022-07-17T11:47:44;2.15;;;1.75;;
48042;SDS011;33988;47.992;8.820;2022-07-17T11:50:15;1.77;;;1.48;;
48042;SDS011;33988;47.992;8.820;2022-07-17T11:52:46;6.32;;;1.90;;
48042;SDS011;33988;47.992;8.820;2022-07-17T11:55:16;1.98;;;1.70;;
48042;SDS011;33988;47.992;8.820;2022-07-17T11:57:47;1.60;;;1.50;;
48042;SDS011;33988;47.992;8.820;2022-07-17T12:00:17;1.95;;;1.50;;
48042;SDS011;33988;47.992;8.820;2022-07-17T12:02:57;1.95;;;1.50;;
48042;SDS011;33988;47.992;8.820;2022-07-17T12:05:27;1.73;;;1.60;;
48042;SDS011;33988;47.992;8.820;2022-07-17T12:07:56;1.90;;;1.70;;
48042;SDS011;33988;47.992;8.820;2022-07-17T12:10:24;1.83;;;1.70;;
48042;SDS011;33988;47.992;8.820;2022-07-17T12:15:44;7.72;;;2.25;;
48042;SDS011;33988;47.992;8.820;2022-07-17T12:18:22;1.48;;;1.38;;
48042;SDS011;33988;47.992;8.820;2022-07-17T12:20:58;1.67;;;1.30;;
48042;SDS011;33988;47.992;8.820;2022-07-17T12:23:32;1.70;;;1.40;;
48042;SDS011;33988;47.992;8.820;2022-07-17T12:26:09;1.60;;;1.50;;
48042;SDS011;33988;47.992;8.820;2022-07-17T12:28:44;2.58;;;1.58;;
48042;SDS011;33988;47.992;8.820;2022-07-17T12:31:13;5.40;;;1.52;;
48042;SDS011;33988;47.992;8.820;2022-07-17T12:33:43;1.53;;;1.43;;
48042;SDS011;33988;47.992;8.820;2022-07-17T12:36:10;1.60;;;1.38;;
48042;SDS011;33988;47.992;8.820;2022-07-17T12:38:37;1.38;;;1.27;;
48042;SDS011;33988;47.992;8.820;2022-07-17T12:41:04;1.27;;;1.17;;
48042;SDS011;33988;47.992;8.820;2022-07-17T12:43:32;1.50;;;1.40;;
48042;SDS011;33988;47.992;8.820;2022-07-17T12:45:59;1.50;;;1.40;;
48042;SDS011;33988;47.992;8.820;2022-07-17T12:48:37;1.50;;;1.40;;
48042;SDS011;33988;47.992;8.820;2022-07-17T12:51:07;1.90;;;1.70;;
48042;SDS011;33988;47.992;8.820;2022-07-17T12:53:35;1.52;;;1.42;;
48042;SDS011;33988;47.992;8.820;2022-07-17T12:56:03;1.45;;;1.30;;
48042;SDS011;33988;47.992;8.820;2022-07-17T12:58:30;1.55;;;1.42;;
48042;SDS011;33988;47.992;8.820;2022-07-17T13:00:57;1.50;;;1.40;;
48042;SDS011;33988;47.992;8.820;2022-07-17T13:03:24;1.63;;;1.52;;
48042;SDS011;33988;47.992;8.820;2022-07-17T13:05:52;2.03;;;1.45;;
48042;SDS011;33988;47.992;8.820;2022-07-17T13:08:28;1.55;;;1.45;;
48042;SDS011;33988;47.992;8.820;2022-07-17T13:10:59;1.50;;;1.40;;
48042;SDS011;33988;47.992;8.820;2022-07-17T13:13:34;1.98;;;1.77;;
48042;SDS011;33988;47.992;8.820;2022-07-17T13:16:09;1.60;;;1.50;;
48042;SDS011;33988;47.992;8.820;2022-07-17T13:18:38;2.13;;;1.48;;
48042;SDS011;33988;47.992;8.820;2022-07-17T13:21:06;2.25;;;1.55;;
48042;SDS011;33988;47.992;8.820;2022-07-17T13:23:34;2.50;;;1.33;;
48042;SDS011;33988;47.992;8.820;2022-07-17T13:26:01;1.33;;;1.23;;
48042;SDS011;33988;47.992;8.820;2022-07-17T13:28:29;1.60;;;1.50;;
48042;SDS011;33988;47.992;8.820;2022-07-17T13:30:56;1.58;;;1.48;;
48042;SDS011;33988;47.992;8.820;2022-07-17T13:33:30;1.55;;;1.35;;
48042;SDS011;33988;47.992;8.820;2022-07-17T13:35:59;2.05;;;1.33;;
48042;SDS011;33988;47.992;8.820;2022-07-17T13:38:29;1.40;;;1.30;;
48042;SDS011;33988;47.992;8.820;2022-07-17T13:40:56;1.30;;;1.20;;
48042;SDS011;33988;47.992;8.820;2022-07-17T13:43:23;1.88;;;1.65;;
48042;SDS011;33988;47.992;8.820;2022-07-17T13:45:50;2.38;;;1.50;;
48042;SDS011;33988;47.992;8.820;2022-07-17T13:48:17;4.53;;;1.42;;
48042;SDS011;33988;47.992;8.820;2022-07-17T13:50:44;3.78;;;1.60;;
48042;SDS011;33988;47.992;8.820;2022-07-17T13:53:14;3.72;;;1.58;;
48042;SDS011;33988;47.992;8.820;2022-07-17T13:55:41;2.35;;;1.90;;
48042;SDS011;33988;47.992;8.820;2022-07-17T13:58:16;1.40;;;1.10;;
48042;SDS011;33988;47.992;8.820;2022-07-17T14:00:46;1.73;;;1.33;;
48042;SDS011;33988;47.992;8.820;2022-07-17T14:03:13;2.10;;;1.50;;
48042;SDS011;33988;47.992;8.820;2022-07-17T14:05:42;2.00;;;1.60;;
48042;SDS011;33988;47.992;8.820;2022-07-17T14:08:12;3.22;;;1.60;;
48042;SDS011;33988;47.992;8.820;2022-07-17T14:10:39;2.20;;;2.00;;
48042;SDS011;33988;47.992;8.820;2022-07-17T14:13:06;2.90;;;1.80;;
48042;SDS011;33988;47.992;8.820;2022-07-17T14:15:33;4.47;;;1.90;;
48042;SDS011;33988;47.992;8.820;2022-07-17T14:18:01;1.95;;;1.50;;
48042;SDS011;33988;47.992;8.820;2022-07-17T14:20:29;2.17;;;1.70;;
48042;SDS011;33988;47.992;8.820;2022-07-17T14:22:58;1.85;;;1.35;;
48042;SDS011;33988;47.992;8.820;2022-07-17T14:25:27;1.63;;;1.52;;
48042;SDS011;33988;47.992;8.820;2022-07-17T14:27:55;1.88;;;1.55;;
48042;SDS011;33988;47.992;8.820;2022-07-17T14:30:23;1.48;;;1.38;;
48042;SDS011;33988;47.992;8.820;2022-07-17T14:32:53;1.77;;;1.50;;
48042;SDS011;33988;47.992;8.820;2022-07-17T14:35:20;2.10;;;1.88;;
48042;SDS011;33988;47.992;8.820;2022-07-17T14:37:50;4.60;;;2.40;;
48042;SDS011;33988;47.992;8.820;2022-07-17T14:40:19;7.65;;;3.22;;
48042;SDS011;33988;47.992;8.820;2022-07-17T14:42:49;29.17;;;7.07;;
48042;SDS011;33988;47.992;8.820;2022-07-17T14:45:16;18.90;;;11.43;;
48042;SDS011;33988;47.992;8.820;2022-07-17T14:47:46;20.27;;;14.30;;
48042;SDS011;33988;47.992;8.820;2022-07-17T14:50:13;17.80;;;11.88;;
48042;SDS011;33988;47.992;8.820;2022-07-17T14:52:45;12.90;;;8.65;;
48042;SDS011;33988;47.992;8.820;2022-07-17T14:55:14;11.73;;;8.13;;
48042;SDS011;33988;47.992;8.820;2022-07-17T14:57:51;8.60;;;5.50;;
48042;SDS011;33988;47.992;8.820;2022-07-17T15:00:18;7.28;;;4.47;;
48042;SDS011;33988;47.992;8.820;2022-07-17T15:02:45;4.95;;;3.45;;
48042;SDS011;33988;47.992;8.820;2022-07-17T15:05:12;3.83;;;2.90;;
48042;SDS011;33988;47.992;8.820;2022-07-17T15:07:39;3.25;;;2.58;;
48042;SDS011;33988;47.992;8.820;2022-07-17T15:10:06;3.00;;;2.20;;
48042;SDS011;33988;47.992;8.820;2022-07-17T15:12:34;2.50;;;1.90;;
48042;SDS011;33988;47.992;8.820;2022-07-17T15:15:01;8.15;;;2.42;;
48042;SDS011;33988;47.992;8.820;2022-07-17T15:17:31;3.40;;;2.42;;
48042;SDS011;33988;47.992;8.820;2022-07-17T15:19:58;2.92;;;2.40;;
48042;SDS011;33988;47.992;8.820;2022-07-17T15:22:25;2.83;;;2.25;;
48042;SDS011;33988;47.992;8.820;2022-07-17T15:24:56;2.78;;;2.17;;
48042;SDS011;33988;47.992;8.820;2022-07-17T15:27:25;1.80;;;1.70;;
48042;SDS011;33988;47.992;8.820;2022-07-17T15:29:52;1.77;;;1.67;;
48042;SDS011;33988;47.992;8.820;2022-07-17T15:32:20;1.58;;;1.48;;
48042;SDS011;33988;47.992;8.820;2022-07-17T15:34:47;1.63;;;1.52;;
48042;SDS011;33988;47.992;8.820;2022-07-17T15:37:21;1.80;;;1.70;;
48042;SDS011;33988;47.992;8.820;2022-07-17T15:39:50;4.00;;;1.70;;
48042;SDS011;33988;47.992;8.820;2022-07-17T15:42:18;1.55;;;1.42;;